sensor_id;sensor_type;location;lat;lon;timestamp;pressure;altitude;pressure_sealevel;temperature;humidity
14089;BME280;7120;52.890;6.040;2023-04-20T00:01:46;102480.81;;;5.46;81.55
14089;BME280;7120;52.890;6.040;2023-04-20T00:04:13;102486.38;;;5.33;83.87
14089;BME280;7120;52.890;6.040;2023-04-20T00:06:40;102460.63;;;5.23;83.99
14089;BME280;7120;52.890;6.040;2023-04-20T00:09:06;102459.56;;;5.24;84.06
14089;BME280;7120;52.890;6.040;2023-04-20T00:11:32;102449.78;;;5.23;83.85
14089;BME280;7120;52.890;6.040;2023-04-20T00:13:57;102451.59;;;5.30;85.18
14089;BME280;7120;52.890;6.040;2023-04-20T00:16:23;102444.19;;;5.37;83.34
14089;BME280;7120;52.890;6.040;2023-04-20T00:18:49;102441.56;;;5.30;84.44
14089;BME280;7120;52.890;6.040;2023-04-20T00:21:14;102438.34;;;5.21;86.21
14089;BME280;7120;52.890;6.040;2023-04-20T00:23:40;102437.34;;;5.16;85.99
14089;BME280;7120;52.890;6.040;2023-04-20T00:26:06;102435.22;;;5.18;88.98
14089;BME280;7120;52.890;6.040;2023-04-20T00:28:32;102434.16;;;5.37;88.28
14089;BME280;7120;52.890;6.040;2023-04-20T00:30:57;102430.06;;;5.46;87.60
14089;BME280;7120;52.890;6.040;2023-04-20T00:33:23;102426.81;;;5.56;88.73
14089;BME280;7120;52.890;6.040;2023-04-20T00:35:48;102415.41;;;5.66;88.52
14089;BME280;7120;52.890;6.040;2023-04-20T00:38:14;102419.34;;;5.82;89.04
14089;BME280;7120;52.890;6.040;2023-04-20T00:40:42;102419.13;;;5.83;89.85
14089;BME280;7120;52.890;6.040;2023-04-20T00:43:13;102414.66;;;5.89;90.14
14089;BME280;7120;52.890;6.040;2023-04-20T00:45:39;102413.25;;;5.86;90.93
14089;BME280;7120;52.890;6.040;2023-04-20T00:48:05;102409.00;;;5.90;90.46
14089;BME280;7120;52.890;6.040;2023-04-20T00:50:32;102407.81;;;5.86;91.78
14089;BME280;7120;52.890;6.040;2023-04-20T00:52:58;102396.97;;;5.86;92.79
14089;BME280;7120;52.890;6.040;2023-04-20T00:55:24;102393.69;;;5.96;92.39
14089;BME280;7120;52.890;6.040;2023-04-20T00:57:51;102389.31;;;5.95;93.26
14089;BME280;7120;52.890;6.040;2023-04-20T01:00:17;102383.41;;;5.98;93.14
14089;BME280;7120;52.890;6.040;2023-04-20T01:02:42;102382.50;;;6.04;93.21
14089;BME280;7120;52.890;6.040;2023-04-20T01:05:07;102367.25;;;6.03;93.93
14089;BME280;7120;52.890;6.040;2023-04-20T01:07:33;102364.41;;;5.98;94.76
14089;BME280;7120;52.890;6.040;2023-04-20T01:09:58;102362.31;;;6.12;93.58
14089;BME280;7120;52.890;6.040;2023-04-20T01:12:24;102354.50;;;6.03;94.96
14089;BME280;7120;52.890;6.040;2023-04-20T01:14:49;102350.28;;;6.08;95.49
14089;BME280;7120;52.890;6.040;2023-04-20T01:17:15;102347.34;;;6.21;94.63
14089;BME280;7120;52.890;6.040;2023-04-20T01:19:41;102339.53;;;6.24;94.78
14089;BME280;7120;52.890;6.040;2023-04-20T01:22:14;102339.63;;;6.41;93.71
14089;BME280;7120;52.890;6.040;2023-04-20T01:24:40;102337.75;;;6.42;93.89
14089;BME280;7120;52.890;6.040;2023-04-20T01:27:05;102335.25;;;6.52;94.02
14089;BME280;7120;52.890;6.040;2023-04-20T01:29:31;102332.88;;;6.67;92.84
14089;BME280;7120;52.890;6.040;2023-04-20T01:31:57;102340.91;;;6.74;92.17
14089;BME280;7120;52.890;6.040;2023-04-20T01:34:23;102329.19;;;6.85;92.30
14089;BME280;7120;52.890;6.040;2023-04-20T01:36:48;102318.38;;;6.90;92.54
14089;BME280;7120;52.890;6.040;2023-04-20T01:39:14;102329.25;;;6.90;93.19
14089;BME280;7120;52.890;6.040;2023-04-20T01:41:39;102318.25;;;6.97;91.96
14089;BME280;7120;52.890;6.040;2023-04-20T01:44:04;102314.00;;;7.01;91.37
14089;BME280;7120;52.890;6.040;2023-04-20T01:46:30;102307.22;;;7.03;92.42
14089;BME280;7120;52.890;6.040;2023-04-20T01:48:55;102302.94;;;7.19;91.13
14089;BME280;7120;52.890;6.040;2023-04-20T01:51:20;102300.44;;;7.18;91.34
14089;BME280;7120;52.890;6.040;2023-04-20T01:53:46;102293.09;;;7.18;90.54
14089;BME280;7120;52.890;6.040;2023-04-20T01:56:11;102299.56;;;7.29;90.85
14089;BME280;7120;52.890;6.040;2023-04-20T01:58:37;102284.63;;;7.31;90.12
14089;BME280;7120;52.890;6.040;2023-04-20T02:01:02;102294.28;;;7.39;90.41
14089;BME280;7120;52.890;6.040;2023-04-20T02:03:27;102288.03;;;7.38;89.91
14089;BME280;7120;52.890;6.040;2023-04-20T02:05:53;102278.16;;;7.49;90.17
14089;BME280;7120;52.890;6.040;2023-04-20T02:08:19;102281.28;;;7.58;89.66
14089;BME280;7120;52.890;6.040;2023-04-20T02:10:44;102282.44;;;7.45;90.95
14089;BME280;7120;52.890;6.040;2023-04-20T02:13:10;102274.22;;;7.57;89.64
14089;BME280;7120;52.890;6.040;2023-04-20T02:15:35;102270.00;;;7.49;89.14
14089;BME280;7120;52.890;6.040;2023-04-20T02:18:01;102263.31;;;7.57;89.96
14089;BME280;7120;52.890;6.040;2023-04-20T02:20:27;102255.31;;;7.50;90.26
14089;BME280;7120;52.890;6.040;2023-04-20T02:22:52;102246.47;;;7.60;90.28
14089;BME280;7120;52.890;6.040;2023-04-20T02:25:19;102243.09;;;7.53;90.43
14089;BME280;7120;52.890;6.040;2023-04-20T02:27:45;102249.44;;;7.58;90.32
14089;BME280;7120;52.890;6.040;2023-04-20T02:30:10;102254.97;;;7.47;89.93
14089;BME280;7120;52.890;6.040;2023-04-20T02:32:36;102240.16;;;7.54;90.96
14089;BME280;7120;52.890;6.040;2023-04-20T02:35:02;102234.25;;;7.46;91.65
14089;BME280;7120;52.890;6.040;2023-04-20T02:37:28;102232.94;;;7.31;92.53
14089;BME280;7120;52.890;6.040;2023-04-20T02:39:54;102218.25;;;7.32;91.80
14089;BME280;7120;52.890;6.040;2023-04-20T02:42:19;102226.75;;;7.36;92.22
14089;BME280;7120;52.890;6.040;2023-04-20T02:44:45;102234.66;;;7.21;93.78
14089;BME280;7120;52.890;6.040;2023-04-20T02:47:10;102225.69;;;7.20;93.48
14089;BME280;7120;52.890;6.040;2023-04-20T02:49:36;102233.50;;;7.16;93.37
14089;BME280;7120;52.890;6.040;2023-04-20T02:52:01;102224.41;;;7.11;94.48
14089;BME280;7120;52.890;6.040;2023-04-20T02:54:26;102217.00;;;7.06;94.86
14089;BME280;7120;52.890;6.040;2023-04-20T02:56:52;102211.47;;;7.01;96.24
14089;BME280;7120;52.890;6.040;2023-04-20T02:59:17;102210.97;;;7.04;96.84
14089;BME280;7120;52.890;6.040;2023-04-20T03:01:42;102200.19;;;7.09;97.02
14089;BME280;7120;52.890;6.040;2023-04-20T03:04:08;102200.75;;;7.11;96.37
14089;BME280;7120;52.890;6.040;2023-04-20T03:06:33;102196.72;;;7.14;97.35
14089;BME280;7120;52.890;6.040;2023-04-20T03:09:00;102195.16;;;7.18;98.09
14089;BME280;7120;52.890;6.040;2023-04-20T03:11:26;102192.38;;;7.30;97.42
14089;BME280;7120;52.890;6.040;2023-04-20T03:13:51;102192.72;;;7.33;97.31
14089;BME280;7120;52.890;6.040;2023-04-20T03:16:16;102197.56;;;7.48;95.54
14089;BME280;7120;52.890;6.040;2023-04-20T03:18:42;102185.34;;;7.51;96.20
14089;BME280;7120;52.890;6.040;2023-04-20T03:21:07;102185.44;;;7.56;94.85
14089;BME280;7120;52.890;6.040;2023-04-20T03:23:32;102178.91;;;7.57;93.95
14089;BME280;7120;52.890;6.040;2023-04-20T03:25:58;102187.31;;;7.72;92.41
14089;BME280;7120;52.890;6.040;2023-04-20T03:28:23;102181.44;;;7.80;91.68
14089;BME280;7120;52.890;6.040;2023-04-20T03:30:49;102186.56;;;7.77;92.09
14089;BME280;7120;52.890;6.040;2023-04-20T03:33:14;102173.53;;;7.79;91.67
14089;BME280;7120;52.890;6.040;2023-04-20T03:35:39;102168.91;;;7.79;89.38
14089;BME280;7120;52.890;6.040;2023-04-20T03:38:07;102173.00;;;7.82;90.01
14089;BME280;7120;52.890;6.040;2023-04-20T03:40:33;102168.47;;;7.87;89.20
14089;BME280;7120;52.890;6.040;2023-04-20T03:42:58;102171.53;;;7.91;88.60
14089;BME280;7120;52.890;6.040;2023-04-20T03:45:24;102160.28;;;7.87;88.18
14089;BME280;7120;52.890;6.040;2023-04-20T03:47:49;102167.66;;;7.87;89.22
14089;BME280;7120;52.890;6.040;2023-04-20T03:50:14;102159.16;;;7.83;88.87
14089;BME280;7120;52.890;6.040;2023-04-20T03:52:40;102164.56;;;8.00;86.94
14089;BME280;7120;52.890;6.040;2023-04-20T03:55:06;102172.84;;;7.88;88.81
14089;BME280;7120;52.890;6.040;2023-04-20T03:57:32;102168.53;;;7.92;88.41
14089;BME280;7120;52.890;6.040;2023-04-20T03:59:57;102156.00;;;7.91;87.72
14089;BME280;7120;52.890;6.040;2023-04-20T04:02:23;102159.28;;;7.93;88.74
14089;BME280;7120;52.890;6.040;2023-04-20T04:04:48;102167.81;;;7.97;88.92
14089;BME280;7120;52.890;6.040;2023-04-20T04:07:14;102173.25;;;7.97;88.15
14089;BME280;7120;52.890;6.040;2023-04-20T04:09:39;102160.69;;;7.96;87.65
14089;BME280;7120;52.890;6.040;2023-04-20T04:12:05;102153.38;;;7.96;87.01
14089;BME280;7120;52.890;6.040;2023-04-20T04:14:32;102159.84;;;7.95;88.36
14089;BME280;7120;52.890;6.040;2023-04-20T04:16:57;102158.84;;;8.02;87.22
14089;BME280;7120;52.890;6.040;2023-04-20T04:19:23;102149.13;;;8.06;86.72
14089;BME280;7120;52.890;6.040;2023-04-20T04:21:48;102154.19;;;7.97;86.51
14089;BME280;7120;52.890;6.040;2023-04-20T04:24:13;102157.28;;;8.06;85.56
14089;BME280;7120;52.890;6.040;2023-04-20T04:26:39;102149.38;;;8.04;84.94
14089;BME280;7120;52.890;6.040;2023-04-20T04:29:04;102153.56;;;8.12;83.10
14089;BME280;7120;52.890;6.040;2023-04-20T04:31:30;102154.88;;;8.09;82.72
14089;BME280;7120;52.890;6.040;2023-04-20T04:33:57;102143.41;;;8.07;81.67
14089;BME280;7120;52.890;6.040;2023-04-20T04:36:22;102144.31;;;8.13;79.87
14089;BME280;7120;52.890;6.040;2023-04-20T04:38:48;102125.91;;;8.03;79.65
14089;BME280;7120;52.890;6.040;2023-04-20T04:41:13;102130.88;;;8.06;79.04
14089;BME280;7120;52.890;6.040;2023-04-20T04:43:40;102134.84;;;7.98;80.76
14089;BME280;7120;52.890;6.040;2023-04-20T04:46:06;102131.63;;;8.02;78.12
14089;BME280;7120;52.890;6.040;2023-04-20T04:48:35;102129.03;;;8.12;76.33
14089;BME280;7120;52.890;6.040;2023-04-20T04:51:01;102128.78;;;8.13;74.68
14089;BME280;7120;52.890;6.040;2023-04-20T04:53:26;102140.31;;;8.20;72.85
14089;BME280;7120;52.890;6.040;2023-04-20T04:55:52;102141.41;;;8.24;72.22
14089;BME280;7120;52.890;6.040;2023-04-20T04:58:17;102132.56;;;8.34;69.39
14089;BME280;7120;52.890;6.040;2023-04-20T05:00:42;102129.34;;;8.37;67.87
14089;BME280;7120;52.890;6.040;2023-04-20T05:03:08;102138.66;;;8.41;67.04
14089;BME280;7120;52.890;6.040;2023-04-20T05:05:33;102128.84;;;8.40;66.50
14089;BME280;7120;52.890;6.040;2023-04-20T05:07:58;102116.94;;;8.46;65.34
14089;BME280;7120;52.890;6.040;2023-04-20T05:10:24;102125.41;;;8.50;64.23
14089;BME280;7120;52.890;6.040;2023-04-20T05:12:49;102123.19;;;8.47;63.88
14089;BME280;7120;52.890;6.040;2023-04-20T05:15:16;102124.50;;;8.44;63.88
14089;BME280;7120;52.890;6.040;2023-04-20T05:17:42;102129.47;;;8.47;62.92
14089;BME280;7120;52.890;6.040;2023-04-20T05:20:08;102129.16;;;8.44;65.19
14089;BME280;7120;52.890;6.040;2023-04-20T05:22:34;102141.88;;;8.16;69.70
14089;BME280;7120;52.890;6.040;2023-04-20T05:25:00;102134.41;;;7.85;72.39
14089;BME280;7120;52.890;6.040;2023-04-20T05:27:25;102145.13;;;7.75;72.29
14089;BME280;7120;52.890;6.040;2023-04-20T05:29:51;102132.22;;;7.65;72.22
14089;BME280;7120;52.890;6.040;2023-04-20T05:32:16;102121.66;;;7.52;77.95
14089;BME280;7120;52.890;6.040;2023-04-20T05:34:41;102106.75;;;7.37;78.75
14089;BME280;7120;52.890;6.040;2023-04-20T05:37:07;102104.13;;;7.26;82.91
14089;BME280;7120;52.890;6.040;2023-04-20T05:39:33;102157.66;;;7.20;87.29
14089;BME280;7120;52.890;6.040;2023-04-20T05:41:59;102146.94;;;7.13;85.07
14089;BME280;7120;52.890;6.040;2023-04-20T05:44:24;102124.00;;;7.09;87.14
14089;BME280;7120;52.890;6.040;2023-04-20T05:46:49;102171.59;;;7.07;88.45
14089;BME280;7120;52.890;6.040;2023-04-20T05:49:15;102160.44;;;7.08;90.12
14089;BME280;7120;52.890;6.040;2023-04-20T05:51:40;102161.38;;;7.14;88.81
14089;BME280;7120;52.890;6.040;2023-04-20T05:54:05;102170.28;;;7.26;89.43
14089;BME280;7120;52.890;6.040;2023-04-20T05:56:31;102169.69;;;7.24;85.78
14089;BME280;7120;52.890;6.040;2023-04-20T05:58:57;102156.47;;;7.33;86.36
14089;BME280;7120;52.890;6.040;2023-04-20T06:01:23;102158.22;;;7.56;86.47
14089;BME280;7120;52.890;6.040;2023-04-20T06:03:48;102146.81;;;7.59;81.62
14089;BME280;7120;52.890;6.040;2023-04-20T06:06:14;102149.53;;;7.76;82.67
14089;BME280;7120;52.890;6.040;2023-04-20T06:08:40;102146.16;;;7.68;80.86
14089;BME280;7120;52.890;6.040;2023-04-20T06:11:06;102143.66;;;7.67;82.95
14089;BME280;7120;52.890;6.040;2023-04-20T06:13:31;102149.81;;;7.57;84.61
14089;BME280;7120;52.890;6.040;2023-04-20T06:15:56;102135.00;;;7.70;83.10
14089;BME280;7120;52.890;6.040;2023-04-20T06:18:22;102137.91;;;7.63;81.90
14089;BME280;7120;52.890;6.040;2023-04-20T06:20:47;102157.72;;;7.59;82.74
14089;BME280;7120;52.890;6.040;2023-04-20T06:23:12;102142.84;;;7.66;81.15
14089;BME280;7120;52.890;6.040;2023-04-20T06:25:38;102152.91;;;7.66;82.34
14089;BME280;7120;52.890;6.040;2023-04-20T06:28:04;102164.03;;;7.81;82.94
14089;BME280;7120;52.890;6.040;2023-04-20T06:30:31;102158.84;;;7.80;82.54
14089;BME280;7120;52.890;6.040;2023-04-20T06:33:01;102150.84;;;7.73;84.99
14089;BME280;7120;52.890;6.040;2023-04-20T06:35:27;102145.09;;;7.69;83.74
14089;BME280;7120;52.890;6.040;2023-04-20T06:37:53;102157.19;;;7.79;85.91
14089;BME280;7120;52.890;6.040;2023-04-20T06:40:20;102161.59;;;7.63;84.62
14089;BME280;7120;52.890;6.040;2023-04-20T06:42:45;102153.44;;;7.63;85.30
14089;BME280;7120;52.890;6.040;2023-04-20T06:45:11;102131.09;;;7.44;86.84
14089;BME280;7120;52.890;6.040;2023-04-20T06:47:36;102140.50;;;7.36;89.10
14089;BME280;7120;52.890;6.040;2023-04-20T06:50:04;102150.31;;;7.54;88.60
14089;BME280;7120;52.890;6.040;2023-04-20T06:52:35;102160.06;;;7.33;89.95
14089;BME280;7120;52.890;6.040;2023-04-20T06:55:01;102159.41;;;7.26;92.65
14089;BME280;7120;52.890;6.040;2023-04-20T06:57:26;102151.06;;;7.16;91.92
14089;BME280;7120;52.890;6.040;2023-04-20T06:59:52;102155.25;;;7.24;90.52
14089;BME280;7120;52.890;6.040;2023-04-20T07:02:17;102145.94;;;7.36;91.65
14089;BME280;7120;52.890;6.040;2023-04-20T07:04:42;102141.38;;;7.59;90.14
14089;BME280;7120;52.890;6.040;2023-04-20T07:07:08;102138.94;;;7.79;91.38
14089;BME280;7120;52.890;6.040;2023-04-20T07:09:33;102137.69;;;7.87;88.96
14089;BME280;7120;52.890;6.040;2023-04-20T07:11:58;102142.47;;;7.96;90.82
14089;BME280;7120;52.890;6.040;2023-04-20T07:14:24;102145.59;;;8.10;88.63
14089;BME280;7120;52.890;6.040;2023-04-20T07:16:53;102146.06;;;8.02;89.37
14089;BME280;7120;52.890;6.040;2023-04-20T07:19:18;102134.25;;;7.75;86.79
14089;BME280;7120;52.890;6.040;2023-04-20T07:21:43;102131.38;;;7.64;90.12
14089;BME280;7120;52.890;6.040;2023-04-20T07:24:09;102114.66;;;7.39;90.37
14089;BME280;7120;52.890;6.040;2023-04-20T07:26:35;102123.25;;;7.31;91.76
14089;BME280;7120;52.890;6.040;2023-04-20T07:29:00;102132.59;;;7.35;90.84
14089;BME280;7120;52.890;6.040;2023-04-20T07:31:26;102120.06;;;7.17;91.83
14089;BME280;7120;52.890;6.040;2023-04-20T07:33:51;102129.03;;;7.18;92.81
14089;BME280;7120;52.890;6.040;2023-04-20T07:36:16;102135.97;;;7.08;93.88
14089;BME280;7120;52.890;6.040;2023-04-20T07:38:42;102138.59;;;7.03;95.31
14089;BME280;7120;52.890;6.040;2023-04-20T07:41:10;102142.91;;;6.99;96.31
14089;BME280;7120;52.890;6.040;2023-04-20T07:43:36;102143.53;;;6.89;95.97
14089;BME280;7120;52.890;6.040;2023-04-20T07:46:02;102141.97;;;6.94;98.01
14089;BME280;7120;52.890;6.040;2023-04-20T07:48:28;102139.72;;;6.91;98.90
14089;BME280;7120;52.890;6.040;2023-04-20T07:50:53;102133.47;;;6.90;98.98
14089;BME280;7120;52.890;6.040;2023-04-20T07:53:19;102141.66;;;7.07;98.94
14089;BME280;7120;52.890;6.040;2023-04-20T07:55:44;102133.09;;;7.15;99.95
14089;BME280;7120;52.890;6.040;2023-04-20T07:58:10;102132.00;;;7.16;100.00
14089;BME280;7120;52.890;6.040;2023-04-20T08:00:36;102123.25;;;7.31;100.00
14089;BME280;7120;52.890;6.040;2023-04-20T08:03:01;102123.59;;;7.18;100.00
14089;BME280;7120;52.890;6.040;2023-04-20T08:05:26;102128.81;;;7.19;100.00
14089;BME280;7120;52.890;6.040;2023-04-20T08:07:52;102128.22;;;7.17;100.00
14089;BME280;7120;52.890;6.040;2023-04-20T08:10:17;102135.56;;;7.33;100.00
14089;BME280;7120;52.890;6.040;2023-04-20T08:12:43;102128.47;;;7.15;100.00
14089;BME280;7120;52.890;6.040;2023-04-20T08:15:09;102128.78;;;7.02;100.00
14089;BME280;7120;52.890;6.040;2023-04-20T08:17:34;102135.91;;;7.20;100.00
14089;BME280;7120;52.890;6.040;2023-04-20T08:20:00;102131.00;;;7.39;100.00
14089;BME280;7120;52.890;6.040;2023-04-20T08:22:25;102121.38;;;7.48;100.00
14089;BME280;7120;52.890;6.040;2023-04-20T08:24:55;102122.31;;;7.76;100.00
14089;BME280;7120;52.890;6.040;2023-04-20T08:27:20;102117.66;;;7.54;100.00
14089;BME280;7120;52.890;6.040;2023-04-20T08:29:46;102117.53;;;7.88;100.00
14089;BME280;7120;52.890;6.040;2023-04-20T08:32:11;102111.22;;;7.82;98.83
14089;BME280;7120;52.890;6.040;2023-04-20T08:34:38;102116.22;;;7.68;100.00
14089;BME280;7120;52.890;6.040;2023-04-20T08:37:03;102119.75;;;7.69;99.17
14089;BME280;7120;52.890;6.040;2023-04-20T08:39:29;102119.81;;;7.96;100.00
14089;BME280;7120;52.890;6.040;2023-04-20T08:41:54;102110.19;;;8.10;95.75
14089;BME280;7120;52.890;6.040;2023-04-20T08:44:22;102103.25;;;7.97;96.64
14089;BME280;7120;52.890;6.040;2023-04-20T08:46:48;102114.50;;;7.84;95.52
14089;BME280;7120;52.890;6.040;2023-04-20T08:49:15;102117.34;;;8.16;97.27
14089;BME280;7120;52.890;6.040;2023-04-20T08:51:41;102115.03;;;8.25;94.46
14089;BME280;7120;52.890;6.040;2023-04-20T08:54:07;102096.97;;;8.41;94.13
14089;BME280;7120;52.890;6.040;2023-04-20T08:56:44;102110.41;;;8.25;92.51
14089;BME280;7120;52.890;6.040;2023-04-20T08:59:10;102121.16;;;8.37;94.28
14089;BME280;7120;52.890;6.040;2023-04-20T09:01:39;102110.19;;;8.32;91.95
14089;BME280;7120;52.890;6.040;2023-04-20T09:06:48;102122.34;;;8.03;91.46
14089;BME280;7120;52.890;6.040;2023-04-20T09:09:18;102130.66;;;8.13;89.69
14089;BME280;7120;52.890;6.040;2023-04-20T09:11:44;102115.91;;;8.09;92.69
14089;BME280;7120;52.890;6.040;2023-04-20T09:14:12;102119.44;;;8.31;92.36
14089;BME280;7120;52.890;6.040;2023-04-20T09:16:48;102110.44;;;8.31;91.10
14089;BME280;7120;52.890;6.040;2023-04-20T09:19:25;102119.13;;;8.27;90.49
14089;BME280;7120;52.890;6.040;2023-04-20T09:21:52;102109.13;;;8.11;90.33
14089;BME280;7120;52.890;6.040;2023-04-20T09:24:20;102113.75;;;8.33;91.10
14089;BME280;7120;52.890;6.040;2023-04-20T09:26:46;102113.38;;;8.46;88.81
14089;BME280;7120;52.890;6.040;2023-04-20T09:29:22;102115.03;;;8.47;89.03
14089;BME280;7120;52.890;6.040;2023-04-20T09:31:48;102111.00;;;8.82;88.23
14089;BME280;7120;52.890;6.040;2023-04-20T09:34:14;102112.72;;;8.93;87.75
14089;BME280;7120;52.890;6.040;2023-04-20T09:36:45;102105.88;;;8.90;88.71
14089;BME280;7120;52.890;6.040;2023-04-20T09:39:13;102107.75;;;9.22;85.96
14089;BME280;7120;52.890;6.040;2023-04-20T09:41:40;102105.25;;;9.52;84.18
14089;BME280;7120;52.890;6.040;2023-04-20T09:44:07;102108.41;;;9.34;82.80
14089;BME280;7120;52.890;6.040;2023-04-20T09:46:34;102119.59;;;8.95;85.82
14089;BME280;7120;52.890;6.040;2023-04-20T09:49:02;102110.53;;;8.95;86.64
14089;BME280;7120;52.890;6.040;2023-04-20T09:51:28;102112.81;;;9.03;88.72
14089;BME280;7120;52.890;6.040;2023-04-20T09:53:57;102100.94;;;9.19;85.42
14089;BME280;7120;52.890;6.040;2023-04-20T09:56:24;102103.22;;;8.95;87.39
14089;BME280;7120;52.890;6.040;2023-04-20T09:58:51;102109.22;;;8.97;87.84
14089;BME280;7120;52.890;6.040;2023-04-20T10:01:16;102115.41;;;9.20;88.23
14089;BME280;7120;52.890;6.040;2023-04-20T10:03:43;102111.75;;;9.04;87.82
14089;BME280;7120;52.890;6.040;2023-04-20T10:06:38;102099.78;;;9.10;86.59
14089;BME280;7120;52.890;6.040;2023-04-20T10:09:05;102104.09;;;9.43;86.74
14089;BME280;7120;52.890;6.040;2023-04-20T10:11:39;102088.59;;;9.12;87.68
14089;BME280;7120;52.890;6.040;2023-04-20T10:14:19;102077.53;;;8.91;89.00
14089;BME280;7120;52.890;6.040;2023-04-20T10:19:43;102096.06;;;8.89;91.46
14089;BME280;7120;52.890;6.040;2023-04-20T10:22:10;102087.88;;;8.89;89.98
14089;BME280;7120;52.890;6.040;2023-04-20T10:24:36;102090.25;;;9.13;90.28
14089;BME280;7120;52.890;6.040;2023-04-20T10:27:20;102094.09;;;9.17;90.11
14089;BME280;7120;52.890;6.040;2023-04-20T10:29:47;102083.03;;;9.01;90.52
14089;BME280;7120;52.890;6.040;2023-04-20T10:32:26;102081.94;;;9.34;89.20
14089;BME280;7120;52.890;6.040;2023-04-20T10:37:26;102088.41;;;9.66;88.56
14089;BME280;7120;52.890;6.040;2023-04-20T10:39:52;102085.53;;;9.40;87.68
14089;BME280;7120;52.890;6.040;2023-04-20T10:42:18;102090.06;;;9.24;88.88
14089;BME280;7120;52.890;6.040;2023-04-20T10:44:50;102104.16;;;9.11;90.19
14089;BME280;7120;52.890;6.040;2023-04-20T10:47:16;102088.00;;;9.04;90.79
14089;BME280;7120;52.890;6.040;2023-04-20T10:49:42;102097.97;;;9.26;89.88
14089;BME280;7120;52.890;6.040;2023-04-20T10:52:08;102096.00;;;9.16;90.19
14089;BME280;7120;52.890;6.040;2023-04-20T10:54:40;102099.41;;;9.01;91.51
14089;BME280;7120;52.890;6.040;2023-04-20T10:57:06;102093.41;;;8.99;92.36
14089;BME280;7120;52.890;6.040;2023-04-20T10:59:32;102084.94;;;9.33;90.61
14089;BME280;7120;52.890;6.040;2023-04-20T11:01:59;102085.81;;;9.06;89.91
14089;BME280;7120;52.890;6.040;2023-04-20T11:04:29;102091.59;;;9.10;91.65
14089;BME280;7120;52.890;6.040;2023-04-20T11:07:03;102085.13;;;9.69;89.08
14089;BME280;7120;52.890;6.040;2023-04-20T11:09:29;102081.03;;;11.46;83.00
14089;BME280;7120;52.890;6.040;2023-04-20T11:12:04;102082.19;;;11.35;79.17
14089;BME280;7120;52.890;6.040;2023-04-20T11:14:31;102069.34;;;10.99;82.00
14089;BME280;7120;52.890;6.040;2023-04-20T11:16:58;102056.19;;;11.02;79.68
14089;BME280;7120;52.890;6.040;2023-04-20T11:19:34;102043.91;;;10.79;81.93
14089;BME280;7120;52.890;6.040;2023-04-20T11:22:00;102048.00;;;10.51;81.40
14089;BME280;7120;52.890;6.040;2023-04-20T11:24:27;102063.63;;;11.96;78.08
14089;BME280;7120;52.890;6.040;2023-04-20T11:26:54;102043.25;;;12.91;72.42
14089;BME280;7120;52.890;6.040;2023-04-20T11:29:36;102036.50;;;13.36;68.36
14089;BME280;7120;52.890;6.040;2023-04-20T11:32:12;102036.72;;;12.82;73.45
14089;BME280;7120;52.890;6.040;2023-04-20T11:34:42;102027.44;;;13.07;71.46
14089;BME280;7120;52.890;6.040;2023-04-20T11:37:09;102033.25;;;12.32;70.74
14089;BME280;7120;52.890;6.040;2023-04-20T11:39:37;102042.91;;;12.69;68.71
14089;BME280;7120;52.890;6.040;2023-04-20T11:42:03;102023.19;;;12.22;72.22
14089;BME280;7120;52.890;6.040;2023-04-20T11:44:29;102034.38;;;11.81;73.45
14089;BME280;7120;52.890;6.040;2023-04-20T11:46:55;102033.09;;;12.91;69.40
14089;BME280;7120;52.890;6.040;2023-04-20T11:49:25;102034.75;;;12.87;68.90
14089;BME280;7120;52.890;6.040;2023-04-20T11:51:50;102021.88;;;13.65;66.35
14089;BME280;7120;52.890;6.040;2023-04-20T11:54:16;102025.59;;;14.73;64.85
14089;BME280;7120;52.890;6.040;2023-04-20T11:56:43;102013.56;;;14.83;60.92
14089;BME280;7120;52.890;6.040;2023-04-20T11:59:10;102021.66;;;14.23;63.06
14089;BME280;7120;52.890;6.040;2023-04-20T12:01:35;102016.88;;;14.99;62.59
14089;BME280;7120;52.890;6.040;2023-04-20T12:04:04;102012.66;;;14.36;64.32
14089;BME280;7120;52.890;6.040;2023-04-20T12:06:30;102018.00;;;14.65;63.61
14089;BME280;7120;52.890;6.040;2023-04-20T12:08:58;102011.63;;;14.13;63.01
14089;BME280;7120;52.890;6.040;2023-04-20T12:11:24;102015.09;;;12.75;67.79
14089;BME280;7120;52.890;6.040;2023-04-20T12:13:49;102001.34;;;12.46;69.70
14089;BME280;7120;52.890;6.040;2023-04-20T12:16:15;102017.28;;;13.07;69.96
14089;BME280;7120;52.890;6.040;2023-04-20T12:18:41;102010.13;;;13.83;65.31
14089;BME280;7120;52.890;6.040;2023-04-20T12:21:06;102002.78;;;14.54;64.88
14089;BME280;7120;52.890;6.040;2023-04-20T12:23:32;102012.69;;;14.17;61.37
14089;BME280;7120;52.890;6.040;2023-04-20T12:25:58;102012.28;;;14.05;64.60
14089;BME280;7120;52.890;6.040;2023-04-20T12:28:24;102004.53;;;13.88;60.87
14089;BME280;7120;52.890;6.040;2023-04-20T12:30:49;102016.34;;;13.70;66.42
14089;BME280;7120;52.890;6.040;2023-04-20T12:33:15;102010.91;;;14.78;61.16
14089;BME280;7120;52.890;6.040;2023-04-20T12:35:41;102016.91;;;14.10;61.81
14089;BME280;7120;52.890;6.040;2023-04-20T12:38:07;102013.44;;;13.61;62.82
14089;BME280;7120;52.890;6.040;2023-04-20T12:40:33;102015.03;;;12.85;64.39
14089;BME280;7120;52.890;6.040;2023-04-20T12:42:59;102002.38;;;13.13;64.23
14089;BME280;7120;52.890;6.040;2023-04-20T12:45:24;102004.00;;;12.17;65.04
14089;BME280;7120;52.890;6.040;2023-04-20T12:47:49;102010.09;;;12.82;66.06
14089;BME280;7120;52.890;6.040;2023-04-20T12:50:15;101992.13;;;13.24;62.99
14089;BME280;7120;52.890;6.040;2023-04-20T12:52:40;102002.69;;;12.83;64.82
14089;BME280;7120;52.890;6.040;2023-04-20T12:55:06;101997.78;;;12.46;66.49
14089;BME280;7120;52.890;6.040;2023-04-20T12:57:32;101999.84;;;12.93;67.73
14089;BME280;7120;52.890;6.040;2023-04-20T12:59:57;102000.31;;;13.00;67.89
14089;BME280;7120;52.890;6.040;2023-04-20T13:02:24;102005.28;;;12.98;66.58
14089;BME280;7120;52.890;6.040;2023-04-20T13:04:50;102003.88;;;12.37;67.75
14089;BME280;7120;52.890;6.040;2023-04-20T13:07:16;102008.94;;;12.54;68.62
14089;BME280;7120;52.890;6.040;2023-04-20T13:09:42;102000.66;;;12.25;68.75
14089;BME280;7120;52.890;6.040;2023-04-20T13:12:07;101999.53;;;12.31;68.49